Latest Coastal Weather Observations for Charles Point

IDD60701

Issued at 10:51 pm CST Friday 1 July 2016 (issued every 10 minutes, with the page automatically refreshed every 10 minutes)

About coastal observations | Map of coastal stations | Coastal observations for NT | Marine services | Other Formats
Station Details ID: 014031 Name: CHARLES POINT Lat: -12.39 Lon: 130.63 Height: 14.0 m
Data from the previous 72 hours. | See also: Recent months for locations in Northern Territory
Date/Time
CST
Temp
°C
Wind Pressure Rain since
9am
mm
Weather Cloud Vis
km
Sea
Height
m
Swell
Dir  Spd
kts
Gust
kts
hPa Trend Height
m
Period
s
Dir
01/10:30pm 25.9 NE 3 6 1015.3 - 0.0 - - - - - - -
01/10:00pm 24.9 NE 2 4 1015.2 - 0.0 - - - - - - -
01/09:30pm 24.4 E 1 3 1014.9 - 0.0 - - - - - - -
01/09:00pm 24.8 E 2 3 1014.6 - 0.0 - - - - - - -
01/08:30pm 26.0 ENE 2 6 1014.4 - 0.0 - - - - - - -
01/08:00pm 26.2 ENE 3 6 1014.0 - 0.0 - - - - - - -
01/07:30pm 26.7 ENE 5 8 1013.5 - 0.0 - - - - - - -
01/07:00pm 27.1 NE 8 12 1013.2 - 0.0 - - - - - - -
01/06:30pm 27.4 NE 9 13 1012.7 - 0.0 - - - - - - -
01/06:00pm 27.7 NE 10 14 1012.5 - 0.0 - - - - - - -
01/05:30pm 28.0 NE 10 14 1012.2 - 0.0 - - - - - - -
01/05:00pm 28.5 NE 9 13 1012.0 - 0.0 - - - - - - -
01/04:30pm 29.0 NE 7 10 1012.0 - 0.0 - - - - - - -
01/04:00pm 28.7 NNE 6 10 1011.9 - 0.0 - - - - - - -
01/03:30pm 28.7 N 9 11 1012.0 - 0.0 - - - - - - -
01/03:00pm 29.1 NNE 6 10 1012.4 - 0.0 - - - - - - -
01/02:30pm 29.7 NE 6 10 1012.7 - 0.0 - - - - - - -
01/02:00pm 32.0 E 6 10 1013.1 - 0.0 - - - - - - -
01/01:30pm 31.8 E 6 11 1013.5 - 0.0 - - - - - - -
01/01:00pm 30.4 ENE 6 11 1014.0 - 0.0 - - - - - - -
01/12:30pm 30.4 E 7 10 1014.4 - 0.0 - - - - - - -
01/12:00pm 30.3 ESE 8 14 1014.7 - 0.0 - - - - - - -
01/11:30am 29.4 E 8 13 1015.2 - 0.0 - - - - - - -
01/11:00am 28.5 ESE 7 13 1015.6 - 0.0 - - - - - - -
01/10:30am 27.9 E 8 13 1015.9 - 0.0 - - - - - - -
01/10:00am 26.5 ESE 8 16 1016.1 - 0.0 - - - - - - -
01/09:30am 25.5 ESE 7 13 1016.3 - 0.0 - - - - - - -
01/09:00am 25.1 ESE 6 11 1016.1 - 0.0 - - - - - - -
01/08:30am 24.2 ESE 5 9 1016.0 - 0.0 - - - - - - -
01/08:00am 23.5 SE 5 8 1015.8 - 0.0 - - - - - - -
01/07:30am 22.7 SE 5 9 1015.5 - 0.0 - - - - - - -
01/07:00am 22.7 SE 5 9 1015.2 - 0.0 - - - - - - -
01/06:30am 22.5 SE 5 7 1014.8 - 0.0 - - - - - - -
01/06:00am 22.4 SE 5 7 1014.6 - 0.0 - - - - - - -
01/05:30am 22.3 SE 5 8 1014.2 - 0.0 - - - - - - -
01/05:00am 22.6 SE 5 7 1014.1 - 0.0 - - - - - - -
01/04:30am 22.3 SSE 5 7 1014.0 - 0.0 - - - - - - -
01/04:00am 21.8 S 4 5 1014.0 - 0.0 - - - - - - -
01/03:30am 22.0 S 3 5 1014.0 - 0.0 - - - - - - -
01/03:00am 22.0 SSW 3 4 1014.0 - 0.0 - - - - - - -
01/02:30am 22.4 SSW 3 4 1014.1 - 0.0 - - - - - - -
01/02:00am 22.8 SSW 3 5 1014.3 - 0.0 - - - - - - -
01/01:30am 23.0 S 4 5 1014.4 - 0.0 - - - - - - -
01/01:00am 23.1 S 3 5 1014.4 - 0.0 - - - - - - -
01/12:30am 23.0 S 4 5 1014.4 - 0.0 - - - - - - -
01/12:00am 22.9 S 4 5 1014.4 - 0.0 - - - - - - -
 
Date/Time
CST
Temp
°C
Wind Pressure Rain since
9am
mm
Weather Cloud Vis
km
Sea
Height
m
Swell
Dir  Spd
kts
Gust
kts
hPa Trend Height
m
Period
s
Dir
30/11:30pm 22.7 E 3 4 1014.4 - 0.0 - - - - - - -
30/11:00pm 23.4 NE 2 2 1014.3 - 0.0 - - - - - - -
30/10:30pm 24.3 NE 2 3 1014.2 - 0.0 - - - - - - -
30/10:00pm 24.1 CALM 0 0 1014.1 - 0.0 - - - - - - -
30/09:30pm 24.4 CALM 0 0 1014.1 - 0.0 - - - - - - -
30/09:00pm 24.7 NE 2 4 1014.0 - 0.0 - - - - - - -
30/08:30pm 24.7 NE 1 2 1013.8 - 0.0 - - - - - - -
30/08:00pm 25.3 CALM 0 0 1013.5 - 0.0 - - - - - - -
30/07:30pm 26.2 CALM 0 2 1013.1 - 0.0 - - - - - - -
30/07:00pm 27.7 NNE 3 6 1012.6 - 0.0 - - - - - - -
30/06:30pm 28.1 NNE 5 7 1012.3 - 0.0 - - - - - - -
30/06:00pm 28.6 N 6 8 1012.0 - 0.0 - - - - - - -
30/05:30pm 29.0 NNE 5 7 1011.9 - 0.0 - - - - - - -
30/05:00pm 29.2 N 8 9 1011.8 - 0.0 - - - - - - -
30/04:30pm 29.4 N 9 11 1011.8 - 0.0 - - - - - - -
30/04:00pm 29.9 N 9 13 1011.7 - 0.0 - - - - - - -
30/03:30pm 33.2 SE 6 10 1011.7 - 0.0 - - - - - - -
30/03:00pm 32.7 ESE 5 11 1012.1 - 0.0 - - - - - - -
30/02:30pm 32.4 E 5 11 1012.6 - 0.0 - - - - - - -
30/02:00pm 32.8 ESE 5 12 1013.1 - 0.0 - - - - - - -
30/01:30pm 31.9 ENE 6 9 1013.6 - 0.0 - - - - - - -
30/01:00pm 31.8 E 5 9 1014.2 - 0.0 - - - - - - -
30/12:30pm 31.5 E 4 9 1014.8 - 0.0 - - - - - - -
30/12:00pm 31.3 SE 5 9 1015.2 - 0.0 - - - - - - -
30/11:30am 30.3 ESE 6 11 1015.6 - 0.0 - - - - - - -
30/11:00am 29.7 SE 6 11 1016.0 - 0.0 - - - - - - -
30/10:30am 28.9 ESE 5 10 1016.4 - 0.0 - - - - - - -
30/10:00am 27.7 ESE 7 12 1016.6 - 0.0 - - - - - - -
30/09:30am 26.9 ESE 6 10 1016.7 - 0.0 - - - - - - -
30/09:00am 26.2 ESE 5 9 1016.5 - 0.0 - - - - - - -
30/08:30am 24.6 SE 5 8 1016.2 - 0.0 - - - - - - -
30/08:00am 23.5 SE 6 9 1015.8 - 0.0 - - - - - - -
30/07:30am 22.5 SE 6 9 1015.4 - 0.0 - - - - - - -
30/07:00am 22.5 SE 5 8 1015.1 - 0.0 - - - - - - -
30/06:30am 22.8 SE 5 9 1015.0 - 0.0 - - - - - - -
30/06:00am 22.9 SSE 7 10 1014.9 - 0.0 - - - - - - -
30/05:30am 22.3 SSE 5 8 1014.7 - 0.0 - - - - - - -
30/05:00am 22.5 SSE 5 6 1014.5 - 0.0 - - - - - - -
30/04:30am 22.5 S 4 5 1014.3 - 0.0 - - - - - - -
30/04:00am 22.4 S 3 5 1014.4 - 0.0 - - - - - - -
30/03:30am 22.9 S 4 6 1014.5 - 0.0 - - - - - - -
30/03:00am 22.8 SSW 3 4 1014.8 - 0.0 - - - - - - -
30/02:30am 23.0 S 3 4 1015.1 - 0.0 - - - - - - -
30/02:00am 23.4 SSW 3 4 1015.2 - 0.0 - - - - - - -
30/01:30am 23.6 S 3 5 1015.5 - 0.0 - - - - - - -
30/01:00am 23.7 S 4 5 1015.6 - 0.0 - - - - - - -
30/12:30am 23.9 S 4 5 1015.6 - 0.0 - - - - - - -
30/12:00am 24.0 S 4 5 1015.7 - 0.0 - - - - - - -
 
Date/Time
CST
Temp
°C
Wind Pressure Rain since
9am
mm
Weather Cloud Vis
km
Sea
Height
m
Swell
Dir  Spd
kts
Gust
kts
hPa Trend Height
m
Period
s
Dir
29/11:30pm 23.9 S 5 7 1015.7 - 0.0 - - - - - - -
29/11:00pm 23.9 SSW 5 7 1015.5 - 0.0 - - - - - - -
29/10:30pm 24.2 E 1 2 1015.5 - 0.0 - - - - - - -
29/10:00pm 24.9 E 1 3 1015.4 - 0.0 - - - - - - -
29/09:30pm 25.1 E 2 4 1015.2 - 0.0 - - - - - - -
29/09:00pm 24.9 E 1 3 1015.1 - 0.0 - - - - - - -
29/08:30pm 26.9 ENE 3 6 1014.7 - 0.0 - - - - - - -
29/08:00pm 27.6 NE 6 9 1014.4 - 0.0 - - - - - - -
29/07:30pm 27.7 NE 7 10 1014.0 - 0.0 - - - - - - -
29/07:00pm 27.6 NE 7 10 1013.6 - 0.0 - - - - - - -
29/06:30pm 27.7 NE 7 10 1013.4 - 0.0 - - - - - - -
29/06:00pm 28.1 NE 8 11 1012.9 - 0.0 - - - - - - -
29/05:30pm 28.5 NNE 9 13 1012.7 - 0.0 - - - - - - -
29/05:00pm 28.8 NNE 10 15 1012.4 - 0.0 - - - - - - -
29/04:30pm 29.0 NNE 10 16 1012.1 - 0.0 - - - - - - -
29/04:00pm 29.7 NE 11 14 1011.9 - 0.0 - - - - - - -
29/03:30pm 30.1 NNE 9 13 1012.1 - 0.0 - - - - - - -
29/03:00pm 30.7 NE 6 9 1012.3 - 0.0 - - - - - - -
29/02:30pm 32.4 ENE 4 7 1012.5 - 0.0 - - - - - - -
29/02:00pm 32.2 ENE 6 9 1013.0 - 0.0 - - - - - - -
29/01:30pm 31.1 E 7 13 1013.5 - 0.0 - - - - - - -
29/01:00pm 31.1 ESE 7 14 1014.2 - 0.0 - - - - - - -
29/12:30pm 31.0 ESE 7 14 1014.8 - 0.0 - - - - - - -
29/12:00pm 30.2 ESE 7 13 1015.3 - 0.0 - - - - - - -
29/11:30am 29.3 SE 9 15 1015.8 - 0.0 - - - - - - -
29/11:00am 29.3 SE 7 15 1016.0 - 0.0 - - - - - - -
29/10:30am 27.4 SE 8 15 1016.3 - 0.0 - - - - - - -
29/10:00am 26.4 SE 9 18 1016.5 - 0.0 - - - - - - -
29/09:30am 26.0 ESE 9 17 1016.7 - 0.0 - - - - - - -
29/09:00am 25.4 ESE 9 16 1016.8 - 0.0 - - - - - - -
29/08:30am 25.0 ESE 6 12 1016.6 - 0.0 - - - - - - -
29/08:00am 24.6 ESE 7 11 1016.4 - 0.0 - - - - - - -
29/07:30am 24.1 ESE 6 11 1016.1 - 0.0 - - - - - - -
29/07:00am 24.0 ESE 7 11 1015.8 - 0.0 - - - - - - -
29/06:30am 24.1 ESE 7 11 1015.5 - 0.0 - - - - - - -
29/06:00am 24.2 ESE 6 12 1015.2 - 0.0 - - - - - - -
29/05:30am 24.7 ESE 6 13 1015.0 - 0.0 - - - - - - -
29/05:00am 25.3 ESE 8 14 1014.7 - 0.0 - - - - - - -
29/04:30am 25.6 ESE 10 16 1014.5 - 0.0 - - - - - - -
29/04:00am 25.0 ESE 8 13 1014.6 - 0.0 - - - - - - -
29/03:30am 25.0 ESE 6 13 1014.8 - 0.0 - - - - - - -
29/03:00am 25.3 SE 6 12 1014.8 - 0.0 - - - - - - -
29/02:30am 24.6 SE 5 8 1014.9 - 0.0 - - - - - - -
29/02:00am 24.0 SSE 4 7 1014.9 - 0.0 - - - - - - -
29/01:30am 24.1 SSE 4 7 1015.0 - 0.0 - - - - - - -
29/01:00am 24.2 S 3 5 1015.1 - 0.0 - - - - - - -
29/12:30am 24.4 S 3 4 1015.1 - 0.0 - - - - - - -
29/12:00am 24.2 SSW 3 4 1015.2 - 0.0 - - - - - - -
 
Date/Time
CST
Temp
°C
Wind Pressure Rain since
9am
mm
Weather Cloud Vis
km
Sea
Height
m
Swell
Dir  Spd
kts
Gust
kts
hPa Trend Height
m
Period
s
Dir
28/11:30pm 24.7 SSW 3 4 1015.1 - 0.0 - - - - - - -
28/11:00pm 25.0 S 3 4 1015.2 - 0.0 - - - - - - -

Other Formats:

Comma delimited format used in spreadsheet applications
http://www.bom.gov.au/fwo/IDD60701/IDD60701.99510.axf

JavaScript Object Notation format (JSON) in row-major order
http://www.bom.gov.au/fwo/IDD60701/IDD60701.99510.json